WetterOnline ( https://www.wetteronline.ch )

Wetter aktuell Helgoland

Aktuelles Wetter: Helgoland/Düne (8m)

6-stündlich | Neueste Meldungen
Ortszeit Temperatur Wetter
Di, 20.10. 2:00 11.8° C bewölkt
Mo, 19.10. 20:00 11.5° C wolkig
Mo, 19.10. 14:00 11.2° C bewölkt
Mo, 19.10. 8:00 10.7° C wolkig
Mo, 19.10. 2:00 10.9° C leicht bewölkt
So, 18.10. 20:00 10.9° C wolkig
So, 18.10. 14:00 11.8° C bewölkt
So, 18.10. 8:00 10.9° C bewölkt
Ortszeit Temperatur Wetter
Di, 20.10. 4:30 11.6° C bedeckt
Di, 20.10. 4:20 11.6° C bedeckt
Di, 20.10. 4:10 11.4° C bedeckt
Di, 20.10. 4:00 11.4° C bedeckt
Di, 20.10. 3:50 11.4° C bedeckt
Di, 20.10. 3:40 11.7° C bedeckt
Di, 20.10. 3:30 11.9° C bedeckt
Di, 20.10. 3:00 11.7° C bewölkt
Ortszeit Relative Feuchte Sichtweite
Di, 20.10. 2:00 76% 15 km
Mo, 19.10. 20:00 73% 45 km
Mo, 19.10. 14:00 84% 23 km
Mo, 19.10. 8:00 70% 55 km
Mo, 19.10. 2:00 60% 55 km
So, 18.10. 20:00 58% 40 km
So, 18.10. 14:00 64% 35 km
So, 18.10. 8:00 81% 35 km
Ortszeit Relative Feuchte Sichtweite
Di, 20.10. 4:30 73% 20 km
Di, 20.10. 4:20 73% -
Di, 20.10. 4:10 73% -
Di, 20.10. 4:00 74% 18 km
Di, 20.10. 3:50 74% -
Di, 20.10. 3:40 73% -
Di, 20.10. 3:30 74% 21 km
Di, 20.10. 3:00 80% 15 km
Ortszeit Niederschlagsmenge Niederschlagsart
Di, 20.10. 2:00 0.0 l/m2 in 6 Std. -
Mo, 19.10. 20:00 2 l/m2 in 12 Std. Sprühregen
Mo, 19.10. 14:00 2 l/m2 in 6 Std. Regen
Mo, 19.10. 8:00 0.1 l/m2 in 12 Std. Regen
Mo, 19.10. 2:00 0.1 l/m2 in 6 Std. Regen
So, 18.10. 20:00 0.6 l/m2 in 12 Std. Regen
So, 18.10. 14:00 0.1 l/m2 in 6 Std. Regen
So, 18.10. 8:00 1 l/m2 in 12 Std. Regen
Ortszeit Niederschlagsmenge Niederschlagsart
Di, 20.10. 4:30 0.0 l/m2 in 1 Std. -
Di, 20.10. 4:20 keine Meldung -
Di, 20.10. 4:10 keine Meldung -
Di, 20.10. 4:00 0.0 l/m2 in 1 Std. -
Di, 20.10. 3:50 keine Meldung -
Di, 20.10. 3:40 keine Meldung -
Di, 20.10. 3:30 0.0 l/m2 in 1 Std. -
Di, 20.10. 3:00 0.0 l/m2 in 1 Std. -
Ortszeit Stärke Spitze Richtung
km/h Bft. km/h Grad Sektor
Di, 20.10. 2:00 22 4 36 180° S
Mo, 19.10. 20:00 24 4 43 210° SW
Mo, 19.10. 14:00 30 5 46 250° W
Mo, 19.10. 8:00 11 2 40 270° W
Mo, 19.10. 2:00 22 4 41 290° W
So, 18.10. 20:00 29 5 50 310° NW
So, 18.10. 14:00 26 4 50 320° NW
So, 18.10. 8:00 37 5 56 300° NW
Ortszeit Stärke Spitze Richtung
km/h Bft. km/h Grad Sektor
Di, 20.10. 4:30 25 4 36 180° S
Di, 20.10. 4:20 25 4 - 180° S
Di, 20.10. 4:10 25 4 - 180° S
Di, 20.10. 4:00 26 4 35 180° S
Di, 20.10. 3:50 26 4 - 180° S
Di, 20.10. 3:40 24 4 - 180° S
Di, 20.10. 3:30 22 4 32 180° S
Di, 20.10. 3:00 22 4 29 170° S
Ortszeit Untergrenze Bedeckung Gattung
total tief tief mittel hoch
Di, 20.10. 2:00 1470 m 8/8 7/8 - - -
Mo, 19.10. 20:00 660 m 7/8 1/8 - - -
Mo, 19.10. 14:00 510 m 7/8 7/8 - - -
Mo, 19.10. 8:00 840 m 6/8 6/8 - - -
Mo, 19.10. 2:00 1500 m 3/8 5/8 - - -
So, 18.10. 20:00 1500 m 8/8 3/8 - - -
So, 18.10. 14:00 1110 m 7/8 7/8 - - -
So, 18.10. 8:00 750 m 7/8 7/8 - - -
Ortszeit Bedeckungsgrad in Achtel und Wolkenuntergrenze
Di, 20.10. 4:30 5(4200m) 8(4800m) 8(6600m)
Di, 20.10. 4:20 5(4200m) 8(4800m) 8(6600m)
Di, 20.10. 4:10 6(3900m) 8(5100m) 8(6900m)
Di, 20.10. 4:00 7(4200m) 8(4800m) 8(6900m)
Di, 20.10. 3:50 7(4200m) 8(4800m) 8(6900m)
Di, 20.10. 3:40 8(4200m) 8(6600m)
Di, 20.10. 3:30 8(4500m) 8(7500m)
Di, 20.10. 3:00 4(1320m) 8(4800m) 8(6600m)
Ortszeit Luftdruck NN (hPa) Tendenz (hPa in 3 Std.)
Di, 20.10. 2:00 1015 - 2,0
Mo, 19.10. 20:00 1018 - 0,5
Mo, 19.10. 14:00 1019 - 0,2
Mo, 19.10. 8:00 1019 - 0,4
Mo, 19.10. 2:00 1020 + 0,2
So, 18.10. 20:00 1019 + 0,9
So, 18.10. 14:00 1018 + 0,7
So, 18.10. 8:00 1017 - 0,3
Ortszeit Luftdruck NN (hPa) Tendenz (hPa in 3 Std.)
Di, 20.10. 4:30 1013 - 2,2
Di, 20.10. 4:20 1013 keine Meldung
Di, 20.10. 4:10 1014 keine Meldung
Di, 20.10. 4:00 1014 - 2,3
Di, 20.10. 3:50 1014 keine Meldung
Di, 20.10. 3:40 1014 keine Meldung
Di, 20.10. 3:30 1014 - 1,9
Di, 20.10. 3:00 1015 - 1,8
Ortszeit Schneehöhe (cm)
Di, 20.10. 2:00 0
Mo, 19.10. 20:00 0
Mo, 19.10. 14:00 0
Mo, 19.10. 8:00 0
Mo, 19.10. 2:00 0
So, 18.10. 20:00 0
So, 18.10. 14:00 0
So, 18.10. 8:00 0
Ortszeit Schneehöhe (cm)
Di, 20.10. 4:30 0
Di, 20.10. 4:20 0
Di, 20.10. 4:10 0
Di, 20.10. 4:00 0
Di, 20.10. 3:50 0
Di, 20.10. 3:40 0
Di, 20.10. 3:30 0
Di, 20.10. 3:00 0
Link zu dieser Seite / Seite empfehlen

Das Wetter in ...